White Rock, Canada
Current Conditions -  °F | °C
As of 11:00 AM on Monday 22 Dec 2014 (Local Time) from CYVR Reporting Station
Overcast Overcast  
Wind Chill: 39°   Ceiling: 17000
Heat Index: 43°   Visibility: 10mi
Dew Point: 41°   Wind: 7mph
Humidity: 93%   Direction: 100°E
Pressure: 30.35"   Gusts: NA
Location:  49.03°N, 122.82°W
Report Text: CYVR 221900Z 10006KT 10SM SCT010 BKN170 OVC220 06/05 A3035 RMK SF3AC4CI1 VIS E 5 SLP277
Loading
Personal Weather Stations






























Interactive Weather Map New forecast layout! Learn more

10-Day Weather Forecast

Advertisements
Track Severe Weather on mobile